Meteo Giornale » Osservazioni meteo Stati Uniti (USA) » Ephrata
ore: 03:53 - Osservazioni Meteo Ephrata
Lat. 47° 18' N Lon. 119° 30' W Alt. 389 metri s.l.m.
19 °C
Sereno
Temp. 24 Ore
10 °C
28 °C
Nord
14.8 Km/h
Dew point 4 °C
Umidità 37 %
Visibilità 10 Km
Il sole sorge alle ore 06:17
Il sole tramonta alle ore 19:38
| Data e Ora | Cielo e Fenomeni | T °C | DP °C | Um. % | Pres. hPa | Vis. km | Vento km/h | |
|---|---|---|---|---|---|---|---|---|
| Oggi h: 03:53 | Sereno | 19 | 4 | 37 | 1007 | 10 | N 14.8 | |
| Oggi h: 02:53 | Sereno | 20 | 4 | 34 | 1007 | 10 | N/NO 14.8 | |
| Oggi h: 01:53 | Sereno | 19 | 4 | 37 | 1007 | 10 | N 9.3 | |
| Oggi h: 00:53 | Sereno | 19 | 3 | 34 | 1007 | 10 | N/NO 11.1 | |
| Ieri h: 23:53 | Sereno | 20 | 3 | 32 | 1007 | 10 | N/NO 13 | |
| Ieri h: 22:53 | Sereno | 22 | 3 | 28 | 1008 | 10 | N/NO 13 | |
| Ieri h: 21:53 | Sereno | 22 | 4 | 30 | 1008 | 10 | N/NO 13 | |
| Ieri h: 20:53 | Sereno | 24 | 3 | 25 | 1007 | 10 | NO 18.5 | |
| Ieri h: 19:53 | Sereno | 25 | 3 | 23 | 1007 | 10 | NO 9.3 | |
| Ieri h: 18:53 | Sereno | 28 | 3 | 20 | 1008 | 10 | N/NO 11.1 | |
| Ieri h: 17:53 | Sereno | 28 | 3 | 20 | 1008 | 10 | S/SE 7.4 | |
| Ieri h: 16:53 | Sereno | 28 | 3 | 20 | 1009 | 10 | N 7.4 | |
| Ieri h: 15:53 | Sereno | 28 | 3 | 20 | 1010 | 10 | N 0 | |
| Ieri h: 14:53 | Sereno | 28 | 3 | 20 | 1011 | 10 | N 0 | |
| Ieri h: 13:53 | Sereno | 26 | 3 | 22 | 1012 | 10 | N 0 | |
| Ieri h: 12:53 | Sereno | 25 | 3 | 23 | 1013 | 10 | N 0 | |
| Ieri h: 11:53 | Sereno | 23 | 3 | 26 | 1014 | 10 | N 5.5 | |
| Ieri h: 10:53 | Sereno | 22 | 4 | 30 | 1015 | 10 | N 0 | |
| Ieri h: 09:53 | Sereno | 20 | 4 | 34 | 1015 | 10 | N 13 | |
| Ieri h: 08:53 | Sereno | 17 | 7 | 51 | 1015 | 10 | N 13 | |
| Ieri h: 07:53 | Sereno | 14 | 7 | 62 | 1015 | 10 | N 9.3 | |
| Ieri h: 06:53 | Sereno | 12 | 7 | 71 | 1015 | 10 | N 9.3 | |
| Ieri h: 05:53 | Sereno | 10 | 5 | 71 | 1015 | 10 | N/NE 9.3 | |
| Ieri h: 04:53 | Sereno | 10 | 6 | 76 | 1015 | 10 | N 11.1 | |



